Time;durP1;ratioP1;P1;durP2;ratioP2;P2;SDS_P1;SDS_P2;PMS_P1;PMS_P2;Temp;Humidity;BMP_temperature;BMP_pressure;BME280_temperature;BME280_humidity;BME280_pressure;Samples;Min_cycle;Max_cycle;Signal;HPM_P1;HPM_P2
2022/05/22 00:02:09;;;;;;;4.72;4.53;;;;;;;11.90;100.00;101375.34;6093183;23;20692;-71
2022/05/22 00:04:37;;;;;;;5.50;5.20;;;;;;;11.61;100.00;101348.59;6129277;23;20036;-72
2022/05/22 00:07:05;;;;;;;4.80;4.60;;;;;;;12.06;100.00;101407.03;6121483;23;20793;-73
2022/05/22 00:09:34;;;;;;;4.97;4.78;;;;;;;11.74;100.00;101352.34;6090590;23;20353;-73
2022/05/22 00:12:00;;;;;;;4.70;4.50;;;;;;;10.46;100.00;101141.06;6139039;23;20606;-74
2022/05/22 00:14:27;;;;;;;4.70;4.50;;;;;;;12.03;100.00;101417.69;6125656;23;20133;-73
2022/05/22 00:16:53;;;;;;;4.90;4.70;;;;;;;12.02;100.00;101414.22;6126430;23;20019;-74
2022/05/22 00:19:23;;;;;;;4.88;4.68;;;;;;;12.00;100.00;101423.13;6136836;23;20262;-73
2022/05/22 00:21:50;;;;;;;4.85;4.65;;;;;;;12.00;100.00;101434.50;6131129;23;20023;-74
2022/05/22 00:24:19;;;;;;;4.60;4.40;;;;;;;11.78;100.00;101393.34;6141324;23;20031;-73
2022/05/22 00:26:47;;;;;;;4.57;4.38;;;;;;;11.95;100.00;101418.94;6097609;23;20021;-72
2022/05/22 00:29:14;;;;;;;4.68;4.47;;;;;;;11.98;100.00;101424.03;6148895;23;20084;-73
2022/05/22 00:31:42;;;;;;;4.57;4.38;;;;;;;11.93;100.00;101402.38;6086007;23;20020;-73
2022/05/22 00:34:09;;;;;;;5.43;5.18;;;;;;;11.89;100.00;101400.81;6107467;23;20022;-71
2022/05/22 00:36:35;;;;;;;4.32;4.13;;;;;;;11.82;100.00;101385.34;6137176;23;20120;-73
2022/05/22 00:39:02;;;;;;;5.03;4.72;;;;;;;11.69;100.00;101367.50;6115798;23;20028;-74
2022/05/22 00:41:31;;;;;;;5.28;4.88;;;;;;;11.28;100.00;101311.56;6113219;23;20055;-74
2022/05/22 00:43:57;;;;;;;4.70;4.50;;;;;;;11.64;100.00;101361.59;6109488;23;20052;-74
2022/05/22 00:46:24;;;;;;;5.82;5.55;;;;;;;11.49;100.00;101352.66;6107990;23;20047;-73
2022/05/22 00:48:58;;;;;;;4.80;4.60;;;;;;;11.50;100.00;101382.41;6146248;23;20508;-73
2022/05/22 00:51:36;;;;;;;6.18;5.88;;;;;;;11.40;100.00;101389.84;6111687;23;20029;-70
2022/05/22 00:54:21;;;;;;;4.50;4.30;;;;;;;11.30;100.00;101391.19;6142197;23;20028;-73
2022/05/22 00:56:55;;;;;;;4.57;4.38;;;;;;;11.02;100.00;101402.88;6114317;23;20152;-71
2022/05/22 00:59:32;;;;;;;6.07;5.78;;;;;;;11.12;100.00;101393.69;6098288;23;20037;-73
2022/05/22 01:02:01;;;;;;;4.50;4.30;;;;;;;10.51;100.00;101310.50;6115028;23;20096;-74
2022/05/22 01:04:30;;;;;;;4.60;4.40;;;;;;;11.00;100.00;101399.47;6088380;23;20018;-72
2022/05/22 01:06:56;;;;;;;4.78;4.57;;;;;;;10.57;100.00;101338.28;6112841;23;20031;-73
2022/05/22 01:09:23;;;;;;;6.00;5.70;;;;;;;10.80;100.00;101387.19;6147466;23;20016;-73
2022/05/22 01:11:55;;;;;;;4.93;4.70;;;;;;;10.61;100.00;101366.09;6119977;23;20182;-72
2022/05/22 01:14:22;;;;;;;6.53;6.23;;;;;;;10.65;100.00;101354.56;6144125;23;20031;-73
2022/05/22 01:16:50;;;;;;;4.70;4.50;;;;;;;10.09;100.00;101268.53;6121663;23;20427;-72
2022/05/22 01:19:21;;;;;;;6.15;5.85;;;;;;;10.85;100.00;101394.88;6146654;23;20037;-72
2022/05/22 01:21:54;;;;;;;5.20;5.00;;;;;;;10.63;100.00;101371.28;6100782;23;20017;-72
2022/05/22 01:24:22;;;;;;;7.38;7.07;;;;;;;10.51;100.00;101347.25;6129035;23;20469;-73
2022/05/22 01:26:49;;;;;;;4.90;4.70;;;;;;;10.74;100.00;101390.06;6118596;23;20034;-73
2022/05/22 01:29:17;;;;;;;6.25;5.95;;;;;;;10.73;100.00;101385.75;6141463;23;20041;-71
2022/05/22 01:31:44;;;;;;;4.43;4.22;;;;;;;10.67;100.00;101384.22;6121955;23;20595;-71
2022/05/22 01:34:11;;;;;;;5.53;5.28;;;;;;;10.66;100.00;101395.63;6140912;23;20099;-72
2022/05/22 01:36:38;;;;;;;5.00;4.80;;;;;;;10.56;100.00;101378.56;6112268;23;20027;-74
2022/05/22 01:39:05;;;;;;;4.60;4.40;;;;;;;7.80;100.00;100945.78;6119573;23;20075;-74
2022/05/22 01:41:31;;;;;;;4.70;4.50;;;;;;;9.72;100.00;101246.41;6090929;23;20021;-74
2022/05/22 01:43:58;;;;;;;4.97;4.78;;;;;;;9.95;100.00;101283.03;6108349;23;20538;-73
2022/05/22 01:46:24;;;;;;;5.93;5.63;;;;;;;10.54;100.00;101383.88;6143658;23;20037;-73
2022/05/22 01:48:51;;;;;;;4.50;4.30;;;;;;;9.93;100.00;101290.13;6110225;23;20496;-72
2022/05/22 01:51:17;;;;;;;6.35;6.05;;;;;;;10.13;100.00;101347.00;6110792;23;20416;-73
2022/05/22 01:53:44;;;;;;;4.63;4.43;;;;;;;10.38;100.00;101399.41;6142535;23;20106;-72
2022/05/22 01:56:10;;;;;;;5.97;5.70;;;;;;;9.98;100.00;101337.13;6107859;23;20033;-72
2022/05/22 01:58:36;;;;;;;4.65;4.45;;;;;;;10.19;100.00;101356.41;6140276;23;20027;-73
2022/05/22 02:01:03;;;;;;;4.60;4.40;;;;;;;9.83;100.00;101294.03;6112274;23;20195;-73
2022/05/22 02:03:30;;;;;;;4.55;4.35;;;;;;;9.81;100.00;101295.84;6135887;23;20181;-71
2022/05/22 02:05:56;;;;;;;4.53;4.32;;;;;;;10.04;100.00;101339.50;6090213;23;20565;-73
2022/05/22 02:08:23;;;;;;;6.47;6.18;;;;;;;10.23;100.00;101368.50;6108084;23;20017;-72
2022/05/22 02:10:58;;;;;;;4.80;4.60;;;;;;;10.22;100.00;101374.63;6091724;23;20009;-72
2022/05/22 02:13:37;;;;;;;5.40;5.20;;;;;;;10.19;100.00;101377.41;6088418;23;20213;-71
2022/05/22 02:16:04;;;;;;;4.78;4.57;;;;;;;9.98;100.00;101351.09;6091949;23;20030;-71
2022/05/22 02:18:31;;;;;;;4.80;4.60;;;;;;;9.94;100.00;101385.34;6096614;23;20154;-73
2022/05/22 02:20:57;;;;;;;4.65;4.45;;;;;;;10.11;100.00;101379.47;6091169;23;20035;-74
2022/05/22 02:23:24;;;;;;;6.05;5.75;;;;;;;9.88;100.00;101349.75;6104225;23;20013;-73
2022/05/22 02:25:53;;;;;;;4.50;4.30;;;;;;;10.06;100.00;101353.41;6087501;23;20096;-74
2022/05/22 02:28:21;;;;;;;6.35;6.05;;;;;;;9.53;100.00;101275.09;6071590;23;20543;-72
2022/05/22 02:30:52;;;;;;;4.85;4.65;;;;;;;10.03;100.00;101343.06;6117038;23;20581;-73
2022/05/22 02:33:19;;;;;;;6.15;5.85;;;;;;;10.00;100.00;101335.28;6094154;23;20026;-73
2022/05/22 02:35:47;;;;;;;4.70;4.50;;;;;;;9.98;100.00;101329.25;6115267;23;20020;-74
2022/05/22 02:38:14;;;;;;;5.68;5.45;;;;;;;9.97;100.00;101322.31;6097942;23;20048;-73
2022/05/22 02:40:41;;;;;;;4.60;4.40;;;;;;;9.97;100.00;101331.03;6114352;23;20018;-74
2022/05/22 02:43:08;;;;;;;4.43;4.22;;;;;;;9.85;100.00;101297.44;6094695;23;20025;-73
2022/05/22 02:45:37;;;;;;;4.70;4.50;;;;;;;9.90;100.00;101320.84;6106804;23;20083;-73
2022/05/22 02:48:04;;;;;;;4.30;4.10;;;;;;;9.99;100.00;101317.88;6113786;23;20013;-74
2022/05/22 02:50:33;;;;;;;4.63;4.43;;;;;;;9.98;100.00;101309.16;6117878;23;20036;-73
2022/05/22 02:53:00;;;;;;;4.32;4.13;;;;;;;10.16;100.00;101311.94;6092815;23;20017;-72
2022/05/22 02:55:26;;;;;;;5.28;5.07;;;;;;;9.85;100.00;101260.72;6084592;23;20638;-73
2022/05/22 02:57:52;;;;;;;4.65;4.45;;;;;;;10.26;100.00;101321.13;6114829;23;20725;-73
2022/05/22 03:00:23;;;;;;;5.82;5.57;;;;;;;10.33;100.00;101322.63;6083846;23;20028;-73
2022/05/22 03:02:51;;;;;;;4.45;4.25;;;;;;;10.26;100.00;101297.53;6098922;23;20486;-73
2022/05/22 03:05:18;;;;;;;5.78;5.55;;;;;;;10.41;100.00;101310.97;6130509;23;20065;-73
2022/05/22 03:07:46;;;;;;;4.47;4.28;;;;;;;10.19;100.00;101277.72;6110527;23;20016;-73
2022/05/22 03:10:14;;;;;;;6.22;5.90;;;;;;;10.44;100.00;101318.72;6143526;23;20099;-72
2022/05/22 03:12:41;;;;;;;4.30;4.10;;;;;;;10.45;100.00;101312.56;6100594;23;20010;-74
2022/05/22 03:15:11;;;;;;;5.28;4.88;;;;;;;10.49;100.00;101319.38;6143909;23;20033;-72
2022/05/22 03:17:38;;;;;;;4.60;4.30;;;;;;;10.51;100.00;101310.50;6115155;23;20021;-73
2022/05/22 03:20:06;;;;;;;4.57;4.38;;;;;;;9.77;100.00;101187.63;6111557;23;20021;-72
2022/05/22 03:22:32;;;;;;;4.45;4.25;;;;;;;10.50;100.00;101306.19;6114656;23;20175;-73
2022/05/22 03:24:59;;;;;;;4.82;4.63;;;;;;;9.79;100.00;101200.69;6110156;23;20017;-73
2022/05/22 03:27:25;;;;;;;5.65;5.35;;;;;;;10.40;100.00;101311.88;6115119;23;20084;-74
2022/05/22 03:29:52;;;;;;;4.63;4.43;;;;;;;9.98;100.00;101261.06;6120885;23;20683;-73
2022/05/22 03:32:18;;;;;;;6.68;6.20;;;;;;;9.81;100.00;101232.94;6109119;23;20376;-73
2022/05/22 03:34:45;;;;;;;4.40;4.20;;;;;;;10.19;100.00;101293.47;6114889;23;20096;-72
2022/05/22 03:37:14;;;;;;;5.95;5.65;;;;;;;9.46;100.00;101180.19;6108589;23;20017;-73
2022/05/22 03:39:40;;;;;;;4.55;4.35;;;;;;;10.01;100.00;101283.72;6115254;23;20026;-72
2022/05/22 03:42:07;;;;;;;4.63;4.43;;;;;;;9.61;100.00;101207.53;6142540;23;20116;-72
2022/05/22 03:44:35;;;;;;;4.28;4.07;;;;;;;9.60;100.00;101208.44;6104869;23;20516;-74
2022/05/22 03:47:03;;;;;;;4.43;4.22;;;;;;;9.53;100.00;101215.69;6143784;23;20056;-73
2022/05/22 03:49:29;;;;;;;4.53;4.32;;;;;;;10.13;100.00;101291.94;6107170;23;20610;-73
2022/05/22 03:51:56;;;;;;;4.68;4.47;;;;;;;10.14;100.00;101292.78;6136306;23;20023;-73
2022/05/22 03:54:22;;;;;;;6.88;6.53;;;;;;;9.71;100.00;101231.59;6098292;23;20022;-72
2022/05/22 03:56:49;;;;;;;4.50;4.30;;;;;;;10.17;100.00;101287.44;6077722;23;20174;-72
2022/05/22 03:59:15;;;;;;;6.30;6.00;;;;;;;9.93;100.00;101242.91;6134724;23;20080;-73
2022/05/22 04:01:41;;;;;;;4.93;4.72;;;;;;;10.00;100.00;101246.13;6105700;23;20025;-73
2022/05/22 04:04:08;;;;;;;4.38;4.18;;;;;;;10.40;100.00;101296.13;6107387;23;20009;-70
2022/05/22 04:06:34;;;;;;;4.43;4.22;;;;;;;10.55;100.00;101290.25;6143105;23;20036;-73
2022/05/22 04:09:01;;;;;;;4.72;4.53;;;;;;;10.85;100.00;101287.22;6106880;23;20677;-72
2022/05/22 04:11:27;;;;;;;6.22;5.10;;;;;;;11.09;100.00;101277.41;6110663;23;20020;-72
2022/05/22 04:13:53;;;;;;;4.57;4.38;;;;;;;10.88;100.00;101224.91;6145776;23;20017;-73
2022/05/22 04:16:20;;;;;;;6.55;6.25;;;;;;;10.92;100.00;101201.97;6114878;23;20018;-73
2022/05/22 04:18:46;;;;;;;4.90;4.60;;;;;;;10.86;100.00;101173.38;6118988;23;20005;-72
2022/05/22 04:21:14;;;;;;;5.55;5.32;;;;;;;11.64;100.00;101281.88;6138168;23;20370;-73
2022/05/22 04:26:31;;;;;;;5.72;5.43;;;;;;;11.44;100.00;101217.09;6137320;23;20024;-72
2022/05/22 04:28:58;;;;;;;4.90;4.70;;;;;;;11.95;100.00;101282.16;6095939;23;20043;-72
2022/05/22 04:31:24;;;;;;;5.80;5.50;;;;;;;11.95;100.00;101284.78;6143391;23;20017;-71
2022/05/22 04:33:51;;;;;;;4.75;4.55;;;;;;;12.00;100.00;101281.91;6090305;23;20670;-72
2022/05/22 04:36:18;;;;;;;5.60;5.40;;;;;;;12.17;100.00;101284.56;6135273;23;20024;-72
2022/05/22 04:38:44;;;;;;;4.53;4.32;;;;;;;12.40;100.00;101255.41;6112746;23;20009;-73
2022/05/22 04:41:11;;;;;;;5.47;5.28;;;;;;;13.00;100.00;101278.63;6135659;23;20048;-70
2022/05/22 04:43:37;;;;;;;4.70;4.50;;;;;;;13.08;97.25;101269.38;6108338;23;20017;-73
2022/05/22 04:46:08;;;;;;;4.90;4.70;;;;;;;12.45;95.53;101208.63;6113154;23;20563;-72
2022/05/22 04:48:35;;;;;;;5.13;4.93;;;;;;;13.29;95.57;101291.13;6138254;23;20560;-73
2022/05/22 04:51:02;;;;;;;5.07;4.88;;;;;;;14.00;94.52;101279.28;6112364;23;20020;-72
2022/05/22 04:53:29;;;;;;;5.10;4.90;;;;;;;14.50;91.27;101286.06;6106647;23;20021;-72
2022/05/22 04:55:57;;;;;;;4.80;4.60;;;;;;;15.18;86.96;101292.56;6136720;23;20017;-69
2022/05/22 04:58:24;;;;;;;6.28;5.97;;;;;;;15.73;83.83;101297.03;6095230;23;20029;-73
2022/05/22 05:00:51;;;;;;;5.85;5.45;;;;;;;15.69;81.74;101234.63;6097309;23;20384;-73
2022/05/22 05:03:18;;;;;;;6.45;6.15;;;;;;;16.69;79.22;101288.91;6133912;23;20130;-72
2022/05/22 05:05:56;;;;;;;5.25;5.05;;;;;;;17.46;75.62;101288.03;6106903;23;20029;-73
2022/05/22 05:08:22;;;;;;;7.35;6.95;;;;;;;18.17;72.00;101294.38;6101205;23;20025;-72
2022/05/22 05:10:49;;;;;;;6.43;6.03;;;;;;;18.39;68.81;101287.44;6142742;23;20027;-73
2022/05/22 05:13:15;;;;;;;5.95;5.65;;;;;;;18.52;66.65;101282.88;6105777;23;20034;-73
2022/05/22 05:15:41;;;;;;;5.65;5.35;;;;;;;18.54;66.43;101218.00;6102773;23;20524;-73
2022/05/22 05:18:08;;;;;;;5.57;5.30;;;;;;;19.15;64.83;101293.16;6132090;23;19993;-73
2022/05/22 05:20:37;;;;;;;5.97;5.68;;;;;;;19.42;64.29;101269.63;6083500;23;20016;-73
2022/05/22 05:23:04;;;;;;;5.50;5.20;;;;;;;19.21;61.72;101284.69;6120990;23;20031;-73
2022/05/22 05:25:31;;;;;;;6.22;5.93;;;;;;;18.59;64.21;101265.50;6113168;23;20031;-73
2022/05/22 05:27:57;;;;;;;5.80;5.50;;;;;;;18.42;65.25;101289.84;6139545;23;20020;-73
2022/05/22 05:30:24;;;;;;;6.90;6.60;;;;;;;18.86;64.26;101265.22;6105105;23;20100;-73
2022/05/22 05:32:56;;;;;;;5.68;5.38;;;;;;;18.75;62.95;101275.78;6137050;23;20031;-73
2022/05/22 05:35:22;;;;;;;7.20;6.80;;;;;;;19.19;61.41;101270.66;6080249;23;20025;-73
2022/05/22 05:37:49;;;;;;;6.10;5.80;;;;;;;19.47;61.50;101275.44;6139411;23;20028;-73
2022/05/22 05:40:15;;;;;;;7.18;6.82;;;;;;;19.31;61.96;101259.88;6100073;23;20048;-73
2022/05/22 05:42:41;;;;;;;5.70;5.40;;;;;;;18.29;61.33;101095.97;6118577;23;20024;-72
2022/05/22 05:45:11;;;;;;;6.60;6.30;;;;;;;18.90;61.24;101284.41;6101982;23;20059;-72
2022/05/22 05:47:38;;;;;;;5.80;5.50;;;;;;;17.92;63.39;101274.94;6090862;23;20021;-72
2022/05/22 05:50:05;;;;;;;5.60;5.30;;;;;;;16.69;65.51;101192.66;6148635;23;20031;-73
2022/05/22 05:52:32;;;;;;;5.78;5.47;;;;;;;17.22;67.15;101272.91;6113992;23;20002;-73
2022/05/22 05:55:00;;;;;;;5.63;5.32;;;;;;;17.07;67.88;101235.06;6109309;23;20419;-72
2022/05/22 05:57:27;;;;;;;6.40;6.10;;;;;;;17.11;68.16;101273.66;6116147;23;20018;-73
2022/05/22 05:59:57;;;;;;;5.75;5.45;;;;;;;17.59;67.73;101277.38;6112099;23;20380;-73
2022/05/22 06:02:24;;;;;;;7.05;6.75;;;;;;;18.19;65.23;101273.84;6081293;23;20629;-74
2022/05/22 06:04:50;;;;;;;7.65;7.03;;;;;;;18.35;63.67;101278.84;6099487;23;20079;-72
2022/05/22 06:07:17;;;;;;;7.50;7.05;;;;;;;18.68;63.01;101270.13;6111443;23;20048;-72
2022/05/22 06:09:43;;;;;;;6.30;6.00;;;;;;;18.33;61.64;101212.53;6085886;23;20014;-72
2022/05/22 06:12:10;;;;;;;6.03;5.75;;;;;;;19.05;62.59;101285.88;6108077;23;20013;-70
2022/05/22 06:14:36;;;;;;;5.72;5.38;;;;;;;19.12;60.60;101260.50;6071316;23;20534;-71
2022/05/22 06:17:03;;;;;;;5.70;5.40;;;;;;;18.90;61.33;101268.44;6081695;23;20248;-71
2022/05/22 06:22:15;;;;;;;6.97;6.57;;;;;;;18.61;62.47;101258.25;6080026;23;20136;-73
2022/05/22 06:24:43;;;;;;;5.75;5.45;;;;;;;18.58;62.28;101215.09;6068590;23;20566;-71
2022/05/22 06:27:09;;;;;;;6.50;6.10;;;;;;;18.38;62.18;101262.69;6083280;23;20666;-70
2022/05/22 06:29:36;;;;;;;5.95;5.65;;;;;;;18.14;63.63;101273.34;6104642;23;20352;-71
2022/05/22 06:32:03;;;;;;;6.13;5.82;;;;;;;18.04;64.05;101277.63;6072129;23;20402;-69
2022/05/22 06:34:33;;;;;;;6.07;5.78;;;;;;;17.47;66.17;101279.13;6108657;23;20013;-70
2022/05/22 06:37:04;;;;;;;5.80;5.50;;;;;;;17.35;66.19;101287.00;6079231;23;20029;-71
2022/05/22 06:42:19;;;;;;;7.05;6.75;;;;;;;17.13;67.69;101287.66;6104041;23;20029;-73
2022/05/22 06:45:08;;;;;;;6.53;6.13;;;;;;;17.30;66.54;101265.25;6071775;23;20185;-69
2022/05/22 06:47:36;;;;;;;5.65;5.40;;;;;;;17.12;66.71;101250.66;6108893;23;20099;-70
2022/05/22 06:50:05;;;;;;;5.80;5.50;;;;;;;17.72;65.69;101279.03;6106559;23;20021;-70
2022/05/22 06:52:33;;;;;;;6.15;5.85;;;;;;;18.16;65.84;101281.19;6078688;23;20117;-71
2022/05/22 06:55:00;;;;;;;6.03;5.72;;;;;;;17.46;65.44;101197.81;6082864;23;20380;-71
2022/05/22 06:57:28;;;;;;;6.50;6.03;;;;;;;17.80;64.02;101227.16;6105593;23;20238;-73
2022/05/22 06:59:56;;;;;;;5.90;5.60;;;;;;;17.93;64.40;101276.63;6078507;23;20135;-70
2022/05/22 07:02:27;;;;;;;24.30;23.00;;;;;;;18.00;64.73;101270.88;5984437;23;20285;-71
2022/05/22 07:04:59;;;;;;;5.80;5.50;;;;;;;17.66;66.28;101270.66;6011525;23;20010;-70
2022/05/22 07:07:26;;;;;;;6.38;5.97;;;;;;;17.38;65.94;101192.22;6130957;23;20084;-70
2022/05/22 07:09:53;;;;;;;5.95;5.65;;;;;;;17.44;66.76;101220.94;6105756;23;20010;-71
2022/05/22 07:12:20;;;;;;;7.20;6.80;;;;;;;17.32;66.51;101202.34;6114477;23;20013;-71
2022/05/22 07:14:48;;;;;;;5.90;5.60;;;;;;;17.46;65.53;101181.88;6109521;23;20017;-70
2022/05/22 07:17:16;;;;;;;6.75;6.45;;;;;;;18.00;64.54;101226.59;6126820;23;20067;-70
2022/05/22 07:19:43;;;;;;;6.10;5.80;;;;;;;18.01;64.72;101260.13;6110731;23;20636;-69
2022/05/22 07:22:10;;;;;;;6.53;6.20;;;;;;;18.17;66.00;101259.00;6121358;23;20054;-70
2022/05/22 07:24:37;;;;;;;5.95;5.65;;;;;;;17.44;65.37;101179.38;6101566;23;20021;-73
2022/05/22 07:27:04;;;;;;;6.30;5.90;;;;;;;18.22;65.74;101255.03;6128830;23;20049;-71
2022/05/22 07:29:30;;;;;;;5.85;5.55;;;;;;;18.51;66.00;101254.63;6104861;23;20051;-72
2022/05/22 07:31:57;;;;;;;6.43;6.03;;;;;;;18.70;63.84;101254.88;6136443;23;20023;-71
2022/05/22 07:34:25;;;;;;;6.93;6.60;;;;;;;18.88;62.59;101247.31;6099631;23;20041;-73
2022/05/22 07:36:57;;;;;;;6.15;5.70;;;;;;;18.63;63.05;101253.66;6102413;23;20024;-72
2022/05/22 07:39:24;;;;;;;7.53;7.13;;;;;;;18.24;62.82;101205.28;6135799;23;20025;-70
2022/05/22 07:41:50;;;;;;;5.68;5.38;;;;;;;18.35;61.53;101217.72;6101430;23;20027;-71
2022/05/22 07:44:17;;;;;;;7.53;7.13;;;;;;;18.28;60.14;101193.44;6102349;23;20265;-71
2022/05/22 07:46:43;;;;;;;6.60;6.10;;;;;;;18.73;62.29;101244.00;6139268;23;20021;-71
2022/05/22 07:50:16;;;;;;;6.82;6.45;;;;;;;18.84;62.71;101245.88;6100340;23;20027;-73
2022/05/22 07:51:57;;;;;;;6.00;5.70;;;;;;;18.67;61.35;101214.41;6140282;23;20028;-73
2022/05/22 07:54:43;;;;;;;5.75;5.45;;;;;;;18.88;61.46;101255.31;6089534;23;20086;-71
2022/05/22 07:57:10;;;;;;;6.85;6.50;;;;;;;17.84;60.58;101069.34;6131077;23;20017;-69
2022/05/22 07:59:38;;;;;;;5.82;5.53;;;;;;;18.80;60.29;101246.22;6108693;23;20036;-69
2022/05/22 08:02:07;;;;;;;5.35;5.15;;;;;;;18.30;60.00;101203.94;6119981;23;20413;-70
2022/05/22 08:04:33;;;;;;;6.45;6.05;;;;;;;18.72;59.80;101244.97;6100203;23;20340;-71
2022/05/22 08:07:00;;;;;;;6.55;6.25;;;;;;;18.84;61.52;101245.00;6123373;23;20769;-70
2022/05/22 08:09:26;;;;;;;6.13;5.82;;;;;;;18.33;59.71;101252.38;6096327;23;20384;-70
2022/05/22 08:11:53;;;;;;;6.18;5.82;;;;;;;18.44;62.17;101201.09;6137222;23;20415;-70
2022/05/22 08:14:19;;;;;;;7.13;6.72;;;;;;;18.27;61.69;101175.81;6100435;23;20049;-71
2022/05/22 08:16:46;;;;;;;6.40;6.07;;;;;;;18.23;60.96;101182.31;6131737;23;20036;-69
2022/05/22 08:19:12;;;;;;;6.68;6.38;;;;;;;18.61;61.54;101236.16;6107157;23;20034;-72
2022/05/22 08:21:39;;;;;;;6.05;5.65;;;;;;;18.64;60.33;101226.13;6106153;23;20052;-70
2022/05/22 08:24:10;;;;;;;6.50;6.18;;;;;;;18.69;59.43;101197.34;6119030;22;20606;-70
2022/05/22 08:26:37;;;;;;;6.55;6.25;;;;;;;18.40;58.85;101135.00;6096559;23;20014;-71
2022/05/22 08:29:04;;;;;;;6.57;6.13;;;;;;;19.23;57.88;101217.06;6112292;23;20204;-70
2022/05/22 08:31:30;;;;;;;10.07;5.82;;;;;;;18.87;56.64;101168.50;6158556;23;20501;-75
2022/05/22 08:33:57;;;;;;;6.20;5.80;;;;;;;19.66;54.95;101207.38;6121044;23;20367;-71
2022/05/22 08:36:24;;;;;;;6.97;6.68;;;;;;;20.13;54.59;101182.13;6130247;23;20371;-73
2022/05/22 08:38:51;;;;;;;6.28;5.80;;;;;;;20.17;53.33;101214.69;6150455;23;20021;-71
2022/05/22 08:41:25;;;;;;;6.75;6.38;;;;;;;20.56;53.03;101211.41;6157961;23;20207;-72
2022/05/22 08:44:07;;;;;;;6.38;5.97;;;;;;;20.75;53.51;101213.34;6137197;23;20506;-71
2022/05/22 08:46:37;;;;;;;6.90;6.57;;;;;;;21.07;51.44;101203.38;6152164;23;20252;-72
2022/05/22 08:49:35;;;;;;;6.35;5.95;;;;;;;20.52;53.23;101194.81;6106789;23;20017;-71
2022/05/22 08:52:13;;;;;;;6.32;5.90;;;;;;;21.07;52.32;101186.53;6105945;23;20605;-72
2022/05/22 08:54:42;;;;;;;6.10;5.80;;;;;;;21.19;52.08;101184.56;6129689;23;20544;-70
2022/05/22 09:00:05;;;;;;;6.25;5.88;;;;;;;21.32;49.28;101180.66;6147716;23;20058;-72
2022/05/22 09:02:35;;;;;;;6.90;6.50;;;;;;;20.00;51.69;101178.78;6108552;23;20012;-74
2022/05/22 09:05:13;;;;;;;6.00;5.70;;;;;;;19.90;53.93;101176.06;6116236;23;20304;-71
2022/05/22 09:07:59;;;;;;;6.18;5.88;;;;;;;20.58;51.53;101164.13;6131329;23;20307;-71
2022/05/22 09:10:55;;;;;;;6.72;6.32;;;;;;;20.51;50.91;101159.31;6159234;23;20549;-71
2022/05/22 09:13:33;;;;;;;8.00;7.50;;;;;;;20.66;51.28;101161.66;6130728;23;20035;-72
2022/05/22 09:16:11;;;;;;;6.45;6.00;;;;;;;19.35;51.39;100970.38;6167233;23;20587;-71
2022/05/22 09:18:49;;;;;;;6.57;6.18;;;;;;;20.85;51.10;101160.91;6125022;23;20080;-72
2022/05/22 09:21:31;;;;;;;7.93;7.30;;;;;;;20.32;51.89;101130.72;6156533;23;20005;-71
2022/05/22 09:24:04;;;;;;;6.13;5.82;;;;;;;20.37;51.45;101151.69;6145781;23;20028;-74
2022/05/22 09:26:50;;;;;;;6.20;5.90;;;;;;;20.40;50.82;101150.56;6125331;23;20444;-71
2022/05/22 09:29:35;;;;;;;6.90;6.60;;;;;;;20.99;50.65;101146.31;6122820;23;20197;-73
2022/05/22 09:32:23;;;;;;;6.60;6.20;;;;;;;20.08;48.69;100957.00;6156664;23;20021;-72
2022/05/22 09:35:17;;;;;;;6.07;5.78;;;;;;;21.28;46.26;101141.88;6136588;23;20017;-71
2022/05/22 09:37:58;;;;;;;5.88;5.57;;;;;;;21.08;49.23;101134.81;6111766;23;20021;-70
2022/05/22 09:40:39;;;;;;;7.13;6.72;;;;;;;21.17;49.14;101135.81;6098991;23;20229;-71
2022/05/22 09:43:24;;;;;;;6.60;6.20;;;;;;;21.27;48.10;101140.19;6142310;23;20252;-71
2022/05/22 09:46:28;;;;;;;6.68;6.30;;;;;;;21.18;47.61;101137.50;6101059;23;20018;-71
2022/05/22 09:49:04;;;;;;;6.10;5.80;;;;;;;21.38;47.67;101133.03;6126352;23;20078;-71
2022/05/22 09:52:17;;;;;;;6.70;6.07;;;;;;;21.68;48.10;101140.09;6087095;23;20058;-71
2022/05/22 09:55:12;;;;;;;5.70;5.40;;;;;;;21.64;46.03;101141.34;6119375;23;20852;-71
2022/05/22 09:58:20;;;;;;;6.15;5.85;;;;;;;21.96;45.80;101130.34;6102171;23;20020;-71
2022/05/22 10:01:30;;;;;;;6.22;5.82;;;;;;;21.81;45.91;101127.28;6088916;23;20379;-72
2022/05/22 10:04:25;;;;;;;5.90;5.60;;;;;;;22.33;46.07;101131.41;6143330;23;20531;-72
2022/05/22 10:07:20;;;;;;;6.68;6.28;;;;;;;22.41;46.81;101120.81;6115563;23;20116;-71
2022/05/22 10:09:57;;;;;;;6.70;6.30;;;;;;;22.89;45.72;101117.03;6089415;23;20013;-72
2022/05/22 10:12:52;;;;;;;7.88;7.47;;;;;;;23.25;44.06;101117.13;6107791;23;20020;-70
2022/05/22 10:15:34;;;;;;;7.53;6.95;;;;;;;22.69;42.90;101129.69;6120766;23;20076;-72
2022/05/22 10:18:09;;;;;;;6.78;6.20;;;;;;;22.87;44.09;101125.25;6108278;23;20426;-73
2022/05/22 10:21:00;;;;;;;7.20;6.70;;;;;;;22.89;43.27;101122.41;6108290;23;20009;-71
2022/05/22 10:24:02;;;;;;;7.20;6.82;;;;;;;22.73;44.38;101125.72;6096964;23;20398;-71
2022/05/22 10:26:58;;;;;;;6.30;6.00;;;;;;;22.49;43.00;101028.16;6105459;23;20041;-71
2022/05/22 10:29:55;;;;;;;7.60;7.20;;;;;;;22.54;43.37;101077.69;6126744;23;20024;-71
2022/05/22 10:32:33;;;;;;;7.82;7.32;;;;;;;22.75;44.37;101123.75;6097653;23;20001;-72
2022/05/22 10:35:11;;;;;;;6.22;5.90;;;;;;;22.24;43.42;101117.91;6121238;23;20020;-72
2022/05/22 10:37:58;;;;;;;5.90;5.60;;;;;;;22.09;45.45;101113.97;6130652;23;20213;-71
2022/05/22 10:40:25;;;;;;;7.65;7.18;;;;;;;21.98;43.39;101111.50;6094755;23;20454;-71
2022/05/22 10:42:56;;;;;;;6.18;5.88;;;;;;;22.35;44.71;101100.00;6103818;23;20105;-71
2022/05/22 10:45:32;;;;;;;7.90;7.50;;;;;;;21.94;44.10;101110.09;6120900;23;20028;-71
2022/05/22 10:48:17;;;;;;;5.93;5.60;;;;;;;22.30;44.29;101103.97;6106491;23;20025;-71
2022/05/22 10:51:02;;;;;;;6.28;5.97;;;;;;;22.38;43.33;101097.06;6080869;23;20542;-72
2022/05/22 10:53:47;;;;;;;6.25;5.95;;;;;;;22.42;43.50;101061.84;6132728;23;20013;-70
2022/05/22 10:56:13;;;;;;;7.07;6.68;;;;;;;22.87;42.29;101100.28;6123638;23;20481;-69
2022/05/22 10:58:54;;;;;;;6.13;5.80;;;;;;;22.21;41.08;101091.47;6102783;23;20010;-69
2022/05/22 11:01:31;;;;;;;7.03;6.63;;;;;;;21.97;42.61;101091.09;6107085;23;20196;-70
2022/05/22 11:04:16;;;;;;;6.00;5.70;;;;;;;21.75;42.10;101089.59;6131699;23;20040;-71
2022/05/22 11:07:02;;;;;;;6.20;5.80;;;;;;;21.94;41.07;101073.53;6074928;23;20073;-68
2022/05/22 11:09:32;;;;;;;5.95;5.65;;;;;;;22.18;41.57;101069.50;6133462;23;20211;-70
2022/05/22 11:12:10;;;;;;;6.60;6.00;;;;;;;21.68;41.07;101014.53;6078082;23;20092;-69
2022/05/22 11:14:37;;;;;;;6.30;6.00;;;;;;;22.45;41.10;101063.34;6129512;23;20009;-71
2022/05/22 11:17:08;;;;;;;7.10;5.85;;;;;;;22.25;42.45;101033.19;6103325;23;20037;-70
2022/05/22 11:19:39;;;;;;;5.88;5.57;;;;;;;22.71;42.25;101020.69;6099019;23;20034;-70
2022/05/22 11:22:05;;;;;;;5.88;5.47;;;;;;;22.50;41.57;100903.28;6111133;23;20271;-70
2022/05/22 11:25:00;;;;;;;7.18;6.78;;;;;;;22.83;40.92;101043.56;6129103;23;20025;-71
2022/05/22 11:28:07;;;;;;;6.80;6.50;;;;;;;22.66;42.19;101039.03;6118370;23;20020;-69
2022/05/22 11:30:42;;;;;;;5.90;5.60;;;;;;;22.88;40.75;101029.72;6142462;23;20017;-70
2022/05/22 11:33:40;;;;;;;7.20;6.80;;;;;;;22.49;40.04;101040.66;6098848;23;20422;-70
2022/05/22 11:36:30;;;;;;;5.80;5.50;;;;;;;22.00;40.73;101024.00;6110161;23;20037;-70
2022/05/22 11:39:27;;;;;;;6.25;5.80;;;;;;;22.13;43.25;101016.50;6136266;23;20013;-70
2022/05/22 11:42:00;;;;;;;6.10;5.80;;;;;;;22.20;41.75;101022.09;6108177;23;20096;-70
2022/05/22 11:44:52;;;;;;;7.97;7.00;;;;;;;22.36;41.58;101013.47;6111001;23;20108;-70
2022/05/22 11:47:27;;;;;;;7.25;6.85;;;;;;;22.68;42.02;101008.47;6099058;23;20052;-70
2022/05/22 11:50:02;;;;;;;9.35;6.20;;;;;;;22.84;40.50;101012.28;6129907;23;20517;-69
2022/05/22 11:52:55;;;;;;;6.03;5.72;;;;;;;23.29;40.25;101012.22;6099739;23;20009;-69
2022/05/22 11:55:54;;;;;;;7.50;7.10;;;;;;;23.47;39.84;101011.34;6096493;23;20034;-73